sensor_id;sensor_type;location;lat;lon;timestamp;pressure;altitude;pressure_sealevel;temperature;humidity
16664;BME280;8445;51.270;9.434;2023-01-31T00:01:11;99996.81;;;4.14;71.18
16664;BME280;8445;51.270;9.434;2023-01-31T00:03:38;99994.25;;;4.12;71.31
16664;BME280;8445;51.270;9.434;2023-01-31T00:06:19;99992.47;;;4.13;71.61
16664;BME280;8445;51.270;9.434;2023-01-31T00:08:46;100000.41;;;4.11;71.33
16664;BME280;8445;51.270;9.434;2023-01-31T00:11:13;99997.91;;;4.08;71.26
16664;BME280;8445;51.270;9.434;2023-01-31T00:13:39;100000.72;;;4.04;71.29
16664;BME280;8445;51.270;9.434;2023-01-31T00:16:06;99999.94;;;4.02;71.32
16664;BME280;8445;51.270;9.434;2023-01-31T00:18:33;100001.81;;;3.98;71.39
16664;BME280;8445;51.270;9.434;2023-01-31T00:21:07;99995.84;;;3.94;73.51
16664;BME280;8445;51.270;9.434;2023-01-31T00:23:33;99990.50;;;3.97;72.57
16664;BME280;8445;51.270;9.434;2023-01-31T00:26:20;99997.31;;;4.02;73.95
16664;BME280;8445;51.270;9.434;2023-01-31T00:28:46;99996.41;;;4.03;72.70
16664;BME280;8445;51.270;9.434;2023-01-31T00:31:13;100007.66;;;4.05;72.68
16664;BME280;8445;51.270;9.434;2023-01-31T00:33:41;99986.66;;;4.06;72.57
16664;BME280;8445;51.270;9.434;2023-01-31T00:36:13;99990.97;;;4.07;73.73
16664;BME280;8445;51.270;9.434;2023-01-31T00:38:39;99995.38;;;4.07;72.08
16664;BME280;8445;51.270;9.434;2023-01-31T00:41:07;99998.78;;;4.09;72.11
16664;BME280;8445;51.270;9.434;2023-01-31T00:43:33;99997.91;;;4.08;71.77
16664;BME280;8445;51.270;9.434;2023-01-31T00:46:00;100000.50;;;4.10;71.96
16664;BME280;8445;51.270;9.434;2023-01-31T00:48:26;99997.09;;;4.08;71.95
16664;BME280;8445;51.270;9.434;2023-01-31T00:50:52;100004.75;;;4.12;71.65
16664;BME280;8445;51.270;9.434;2023-01-31T00:53:17;100011.59;;;4.15;71.52
16664;BME280;8445;51.270;9.434;2023-01-31T00:55:52;99996.66;;;4.19;71.79
16664;BME280;8445;51.270;9.434;2023-01-31T00:58:19;100006.88;;;4.25;71.56
16664;BME280;8445;51.270;9.434;2023-01-31T01:00:45;99999.97;;;4.22;71.57
16664;BME280;8445;51.270;9.434;2023-01-31T01:03:11;100012.28;;;4.20;71.26
16664;BME280;8445;51.270;9.434;2023-01-31T01:05:37;100007.84;;;4.22;70.89
16664;BME280;8445;51.270;9.434;2023-01-31T01:08:02;100004.25;;;4.25;71.06
16664;BME280;8445;51.270;9.434;2023-01-31T01:10:28;100005.97;;;4.26;71.00
16664;BME280;8445;51.270;9.434;2023-01-31T01:12:53;100009.38;;;4.28;71.04
16664;BME280;8445;51.270;9.434;2023-01-31T01:15:19;100015.56;;;4.25;71.01
16664;BME280;8445;51.270;9.434;2023-01-31T01:17:44;100007.69;;;4.27;70.77
16664;BME280;8445;51.270;9.434;2023-01-31T01:20:10;100014.75;;;4.25;70.98
16664;BME280;8445;51.270;9.434;2023-01-31T01:22:37;100031.28;;;4.25;70.56
16664;BME280;8445;51.270;9.434;2023-01-31T01:25:03;100031.41;;;4.22;70.67
16664;BME280;8445;51.270;9.434;2023-01-31T01:27:29;100038.22;;;4.26;70.42
16664;BME280;8445;51.270;9.434;2023-01-31T01:29:55;100046.75;;;4.32;70.28
16664;BME280;8445;51.270;9.434;2023-01-31T01:32:22;100039.59;;;4.37;69.71
16664;BME280;8445;51.270;9.434;2023-01-31T01:34:47;100035.22;;;4.37;70.14
16664;BME280;8445;51.270;9.434;2023-01-31T01:37:13;100027.28;;;4.39;70.20
16664;BME280;8445;51.270;9.434;2023-01-31T01:39:48;100028.97;;;4.40;71.04
16664;BME280;8445;51.270;9.434;2023-01-31T01:42:19;100031.28;;;4.48;70.16
16664;BME280;8445;51.270;9.434;2023-01-31T01:44:49;100036.66;;;4.44;70.16
16664;BME280;8445;51.270;9.434;2023-01-31T01:50:18;100043.47;;;4.49;70.40
16664;BME280;8445;51.270;9.434;2023-01-31T01:53:07;100040.97;;;4.45;69.97
16664;BME280;8445;51.270;9.434;2023-01-31T01:55:45;100036.47;;;4.49;70.03
16664;BME280;8445;51.270;9.434;2023-01-31T01:58:24;100039.94;;;4.50;70.28
16664;BME280;8445;51.270;9.434;2023-01-31T02:00:52;100031.13;;;4.52;69.97
16664;BME280;8445;51.270;9.434;2023-01-31T02:03:18;100035.44;;;4.53;69.80
16664;BME280;8445;51.270;9.434;2023-01-31T02:05:44;100048.53;;;4.53;69.82
16664;BME280;8445;51.270;9.434;2023-01-31T02:08:12;100052.19;;;4.49;70.06
16664;BME280;8445;51.270;9.434;2023-01-31T02:10:43;100059.16;;;4.50;69.90
16664;BME280;8445;51.270;9.434;2023-01-31T02:13:11;100056.56;;;4.49;70.01
16664;BME280;8445;51.270;9.434;2023-01-31T02:15:37;100063.72;;;4.45;69.94
16664;BME280;8445;51.270;9.434;2023-01-31T02:18:03;100063.03;;;4.40;70.16
16664;BME280;8445;51.270;9.434;2023-01-31T02:32:26;100069.00;;;4.43;70.37
16664;BME280;8445;51.270;9.434;2023-01-31T02:35:47;100061.22;;;4.42;70.03
16664;BME280;8445;51.270;9.434;2023-01-31T02:43:34;100062.84;;;4.22;69.94
16664;BME280;8445;51.270;9.434;2023-01-31T02:46:39;100063.97;;;4.15;69.89
16664;BME280;8445;51.270;9.434;2023-01-31T02:49:14;100072.94;;;4.09;70.30
16664;BME280;8445;51.270;9.434;2023-01-31T02:52:30;100083.91;;;4.19;70.00
16664;BME280;8445;51.270;9.434;2023-01-31T02:55:19;100092.44;;;4.24;70.15
16664;BME280;8445;51.270;9.434;2023-01-31T02:58:08;100084.00;;;4.16;70.10
16664;BME280;8445;51.270;9.434;2023-01-31T03:00:38;100086.38;;;4.24;70.25
16664;BME280;8445;51.270;9.434;2023-01-31T03:03:07;100078.50;;;4.24;70.33
16664;BME280;8445;51.270;9.434;2023-01-31T03:05:37;100097.56;;;4.27;70.13
16664;BME280;8445;51.270;9.434;2023-01-31T03:08:03;100094.91;;;4.29;70.41
16664;BME280;8445;51.270;9.434;2023-01-31T03:10:49;100096.53;;;4.32;70.13
16664;BME280;8445;51.270;9.434;2023-01-31T03:16:27;100088.78;;;4.28;70.45
16664;BME280;8445;51.270;9.434;2023-01-31T03:19:34;100093.13;;;4.29;70.24
16664;BME280;8445;51.270;9.434;2023-01-31T03:22:06;100088.78;;;4.28;70.64
16664;BME280;8445;51.270;9.434;2023-01-31T03:24:34;100092.09;;;4.34;70.40
16664;BME280;8445;51.270;9.434;2023-01-31T03:27:02;100094.59;;;4.37;70.45
16664;BME280;8445;51.270;9.434;2023-01-31T03:29:33;100089.44;;;4.35;70.41
16664;BME280;8445;51.270;9.434;2023-01-31T03:32:07;100093.78;;;4.35;70.43
16664;BME280;8445;51.270;9.434;2023-01-31T03:34:34;100084.13;;;4.37;70.39
16664;BME280;8445;51.270;9.434;2023-01-31T03:37:11;100101.34;;;4.42;70.33
16664;BME280;8445;51.270;9.434;2023-01-31T03:40:02;100084.72;;;4.43;70.39
16664;BME280;8445;51.270;9.434;2023-01-31T03:42:45;100083.81;;;4.44;70.27
16664;BME280;8445;51.270;9.434;2023-01-31T03:45:39;100093.44;;;4.44;70.36
16664;BME280;8445;51.270;9.434;2023-01-31T03:48:07;100090.88;;;4.42;70.13
16664;BME280;8445;51.270;9.434;2023-01-31T03:50:42;100081.97;;;4.47;70.04
16664;BME280;8445;51.270;9.434;2023-01-31T03:53:13;100079.31;;;4.48;69.90
16664;BME280;8445;51.270;9.434;2023-01-31T03:55:56;100072.16;;;4.52;69.82
16664;BME280;8445;51.270;9.434;2023-01-31T03:58:27;100075.78;;;4.49;69.72
16664;BME280;8445;51.270;9.434;2023-01-31T04:00:56;100065.47;;;4.44;69.49
16664;BME280;8445;51.270;9.434;2023-01-31T04:03:36;100066.66;;;4.37;69.66
16664;BME280;8445;51.270;9.434;2023-01-31T04:06:04;100067.59;;;4.35;69.61
16664;BME280;8445;51.270;9.434;2023-01-31T04:08:32;100062.59;;;4.28;69.82
16664;BME280;8445;51.270;9.434;2023-01-31T04:11:03;100059.97;;;4.28;69.93
16664;BME280;8445;51.270;9.434;2023-01-31T04:13:29;100055.53;;;4.30;69.72
16664;BME280;8445;51.270;9.434;2023-01-31T04:15:54;100062.13;;;4.41;69.61
16664;BME280;8445;51.270;9.434;2023-01-31T04:18:20;100059.63;;;4.38;69.35
16664;BME280;8445;51.270;9.434;2023-01-31T04:20:45;100061.56;;;4.33;69.47
16664;BME280;8445;51.270;9.434;2023-01-31T04:23:11;100056.44;;;4.29;69.31
16664;BME280;8445;51.270;9.434;2023-01-31T04:25:36;100058.22;;;4.29;69.71
16664;BME280;8445;51.270;9.434;2023-01-31T04:28:03;100048.94;;;4.20;69.55
16664;BME280;8445;51.270;9.434;2023-01-31T04:30:29;100053.16;;;4.24;69.37
16664;BME280;8445;51.270;9.434;2023-01-31T04:32:54;100057.66;;;4.21;69.52
16664;BME280;8445;51.270;9.434;2023-01-31T04:35:19;100055.88;;;4.21;68.98
16664;BME280;8445;51.270;9.434;2023-01-31T04:37:45;100061.91;;;4.23;69.42
16664;BME280;8445;51.270;9.434;2023-01-31T04:40:11;100057.34;;;4.28;69.30
16664;BME280;8445;51.270;9.434;2023-01-31T04:42:38;100064.19;;;4.33;69.10
16664;BME280;8445;51.270;9.434;2023-01-31T04:45:04;100058.84;;;4.36;69.24
16664;BME280;8445;51.270;9.434;2023-01-31T04:47:29;100058.72;;;4.39;69.07
16664;BME280;8445;51.270;9.434;2023-01-31T04:49:55;100050.94;;;4.37;69.26
16664;BME280;8445;51.270;9.434;2023-01-31T04:52:20;100055.31;;;4.37;69.20
16664;BME280;8445;51.270;9.434;2023-01-31T04:54:48;100057.88;;;4.38;69.20
16664;BME280;8445;51.270;9.434;2023-01-31T04:57:14;100057.75;;;4.41;69.07
16664;BME280;8445;51.270;9.434;2023-01-31T04:59:39;100050.72;;;4.42;69.22
16664;BME280;8445;51.270;9.434;2023-01-31T05:02:05;100037.75;;;4.39;69.07
16664;BME280;8445;51.270;9.434;2023-01-31T05:04:30;100039.41;;;4.41;68.90
16664;BME280;8445;51.270;9.434;2023-01-31T05:06:56;100035.00;;;4.42;69.20
16664;BME280;8445;51.270;9.434;2023-01-31T05:09:21;100039.47;;;4.40;69.03
16664;BME280;8445;51.270;9.434;2023-01-31T05:11:47;100033.44;;;4.38;69.37
16664;BME280;8445;51.270;9.434;2023-01-31T05:14:13;100035.25;;;4.36;69.36
16664;BME280;8445;51.270;9.434;2023-01-31T05:16:39;100030.94;;;4.35;69.72
16664;BME280;8445;51.270;9.434;2023-01-31T05:19:05;100042.31;;;4.34;69.52
16664;BME280;8445;51.270;9.434;2023-01-31T05:21:30;100037.19;;;4.30;69.27
16664;BME280;8445;51.270;9.434;2023-01-31T05:24:16;100036.41;;;4.28;69.64
16664;BME280;8445;51.270;9.434;2023-01-31T05:26:41;100036.53;;;4.25;69.50
16664;BME280;8445;51.270;9.434;2023-01-31T05:29:07;100026.16;;;4.22;69.69
16664;BME280;8445;51.270;9.434;2023-01-31T05:31:32;100038.47;;;4.20;69.64
16664;BME280;8445;51.270;9.434;2023-01-31T05:33:57;100040.28;;;4.18;69.62
16664;BME280;8445;51.270;9.434;2023-01-31T05:36:23;100036.88;;;4.16;69.94
16664;BME280;8445;51.270;9.434;2023-01-31T05:38:49;100037.88;;;4.13;70.19
16664;BME280;8445;51.270;9.434;2023-01-31T05:41:15;100035.31;;;4.12;69.94
16664;BME280;8445;51.270;9.434;2023-01-31T05:43:40;100027.50;;;4.10;70.09
16664;BME280;8445;51.270;9.434;2023-01-31T05:46:06;100026.69;;;4.10;69.93
16664;BME280;8445;51.270;9.434;2023-01-31T05:48:31;100030.19;;;4.09;70.13
16664;BME280;8445;51.270;9.434;2023-01-31T05:50:57;100035.44;;;4.09;70.04
16664;BME280;8445;51.270;9.434;2023-01-31T05:53:22;100044.22;;;4.08;69.64
16664;BME280;8445;51.270;9.434;2023-01-31T05:55:48;100039.81;;;4.08;69.76
16664;BME280;8445;51.270;9.434;2023-01-31T05:58:14;100043.22;;;4.10;70.00
16664;BME280;8445;51.270;9.434;2023-01-31T06:00:40;100037.97;;;4.10;70.02
16664;BME280;8445;51.270;9.434;2023-01-31T06:03:07;100028.50;;;4.08;69.88
16664;BME280;8445;51.270;9.434;2023-01-31T06:05:32;100032.16;;;4.04;69.53
16664;BME280;8445;51.270;9.434;2023-01-31T06:07:58;100028.72;;;4.02;69.75
16664;BME280;8445;51.270;9.434;2023-01-31T06:10:24;100036.69;;;3.98;70.10
16664;BME280;8445;51.270;9.434;2023-01-31T06:12:50;100033.28;;;3.96;69.89
16664;BME280;8445;51.270;9.434;2023-01-31T06:15:16;100031.59;;;3.95;70.45
16664;BME280;8445;51.270;9.434;2023-01-31T06:17:41;100028.78;;;4.00;70.55
16664;BME280;8445;51.270;9.434;2023-01-31T06:20:07;100027.88;;;4.01;70.39
16664;BME280;8445;51.270;9.434;2023-01-31T06:22:33;100028.84;;;3.98;70.00
16664;BME280;8445;51.270;9.434;2023-01-31T06:24:58;100026.28;;;3.97;70.52
16664;BME280;8445;51.270;9.434;2023-01-31T06:27:24;100029.06;;;3.92;69.91
16664;BME280;8445;51.270;9.434;2023-01-31T06:29:49;100030.00;;;3.91;70.37
16664;BME280;8445;51.270;9.434;2023-01-31T06:32:15;100023.88;;;3.91;70.17
16664;BME280;8445;51.270;9.434;2023-01-31T06:34:43;100032.59;;;3.91;70.25
16664;BME280;8445;51.270;9.434;2023-01-31T06:37:09;100036.97;;;3.91;70.46
16664;BME280;8445;51.270;9.434;2023-01-31T06:39:35;100033.53;;;3.90;70.14
16664;BME280;8445;51.270;9.434;2023-01-31T06:42:01;100039.66;;;3.89;70.50
16664;BME280;8445;51.270;9.434;2023-01-31T06:44:26;100036.97;;;3.91;70.69
16664;BME280;8445;51.270;9.434;2023-01-31T06:46:51;100036.03;;;3.93;70.47
16664;BME280;8445;51.270;9.434;2023-01-31T06:49:17;100030.78;;;3.93;70.18
16664;BME280;8445;51.270;9.434;2023-01-31T06:51:42;100045.59;;;3.94;70.31
16664;BME280;8445;51.270;9.434;2023-01-31T06:54:08;100047.31;;;3.94;70.28
16664;BME280;8445;51.270;9.434;2023-01-31T06:56:33;100044.66;;;3.95;70.55
16664;BME280;8445;51.270;9.434;2023-01-31T06:58:59;100041.25;;;3.93;70.33
16664;BME280;8445;51.270;9.434;2023-01-31T07:01:24;100018.41;;;3.97;70.40
16664;BME280;8445;51.270;9.434;2023-01-31T07:03:50;100024.53;;;3.97;70.54
16664;BME280;8445;51.270;9.434;2023-01-31T07:06:16;100018.38;;;3.98;70.40
16664;BME280;8445;51.270;9.434;2023-01-31T07:08:44;100019.22;;;3.99;70.34
16664;BME280;8445;51.270;9.434;2023-01-31T07:11:10;100022.84;;;3.95;70.62
16664;BME280;8445;51.270;9.434;2023-01-31T07:13:35;100022.03;;;3.94;70.70
16664;BME280;8445;51.270;9.434;2023-01-31T07:16:01;100022.84;;;3.95;70.69
16664;BME280;8445;51.270;9.434;2023-01-31T07:18:27;100018.38;;;3.98;70.70
16664;BME280;8445;51.270;9.434;2023-01-31T07:20:52;100025.44;;;3.96;70.92
16664;BME280;8445;51.270;9.434;2023-01-31T07:23:18;100024.44;;;3.99;70.82
16664;BME280;8445;51.270;9.434;2023-01-31T07:25:43;100020.81;;;4.03;70.90
16664;BME280;8445;51.270;9.434;2023-01-31T07:28:10;100011.13;;;4.05;70.74
16664;BME280;8445;51.270;9.434;2023-01-31T07:30:35;100009.31;;;4.07;71.00
16664;BME280;8445;51.270;9.434;2023-01-31T07:33:01;100019.63;;;4.12;70.80
16664;BME280;8445;51.270;9.434;2023-01-31T07:35:27;100024.78;;;4.13;71.03
16664;BME280;8445;51.270;9.434;2023-01-31T07:37:52;100029.03;;;4.16;70.96
16664;BME280;8445;51.270;9.434;2023-01-31T07:40:18;100015.69;;;4.22;71.15
16664;BME280;8445;51.270;9.434;2023-01-31T07:42:44;100011.13;;;4.27;70.84
16664;BME280;8445;51.270;9.434;2023-01-31T07:45:12;100005.78;;;4.30;70.96
16664;BME280;8445;51.270;9.434;2023-01-31T07:47:37;100007.44;;;4.33;71.21
16664;BME280;8445;51.270;9.434;2023-01-31T07:50:03;99997.78;;;4.34;71.01
16664;BME280;8445;51.270;9.434;2023-01-31T07:52:30;99987.31;;;4.34;71.44
16664;BME280;8445;51.270;9.434;2023-01-31T07:54:56;99994.13;;;4.38;71.24
16664;BME280;8445;51.270;9.434;2023-01-31T07:57:21;99988.84;;;4.39;71.47
16664;BME280;8445;51.270;9.434;2023-01-31T07:59:47;99993.94;;;4.42;71.32
16664;BME280;8445;51.270;9.434;2023-01-31T08:02:13;99994.69;;;4.46;71.46
16664;BME280;8445;51.270;9.434;2023-01-31T08:04:58;99999.72;;;4.51;71.49
16664;BME280;8445;51.270;9.434;2023-01-31T08:07:24;100003.00;;;4.56;71.15
16664;BME280;8445;51.270;9.434;2023-01-31T08:09:50;99986.31;;;4.58;71.09
16664;BME280;8445;51.270;9.434;2023-01-31T08:12:15;99982.78;;;4.59;71.51
16664;BME280;8445;51.270;9.434;2023-01-31T08:14:41;99984.38;;;4.64;71.45
16664;BME280;8445;51.270;9.434;2023-01-31T08:17:08;99965.78;;;4.70;71.63
16664;BME280;8445;51.270;9.434;2023-01-31T08:19:34;99972.38;;;4.79;71.43
16664;BME280;8445;51.270;9.434;2023-01-31T08:22:00;99972.31;;;4.80;71.64
16664;BME280;8445;51.270;9.434;2023-01-31T08:24:26;99964.44;;;4.80;71.55
16664;BME280;8445;51.270;9.434;2023-01-31T08:26:52;99965.34;;;4.79;71.57
16664;BME280;8445;51.270;9.434;2023-01-31T08:29:17;99962.59;;;4.82;71.44
16664;BME280;8445;51.270;9.434;2023-01-31T08:31:43;99950.28;;;4.84;71.86
16664;BME280;8445;51.270;9.434;2023-01-31T08:34:09;99948.19;;;4.93;71.77
16664;BME280;8445;51.270;9.434;2023-01-31T08:36:34;99950.50;;;5.00;71.88
16664;BME280;8445;51.270;9.434;2023-01-31T08:39:01;99954.75;;;5.03;71.74
16664;BME280;8445;51.270;9.434;2023-01-31T08:41:27;99959.91;;;5.04;71.68
16664;BME280;8445;51.270;9.434;2023-01-31T08:43:54;99960.56;;;5.10;71.64
16664;BME280;8445;51.270;9.434;2023-01-31T08:46:22;99951.44;;;5.18;71.76
16664;BME280;8445;51.270;9.434;2023-01-31T08:48:48;99947.03;;;5.19;71.80
16664;BME280;8445;51.270;9.434;2023-01-31T08:51:13;99944.88;;;5.29;72.18
16664;BME280;8445;51.270;9.434;2023-01-31T08:53:40;99944.44;;;5.38;72.13
16664;BME280;8445;51.270;9.434;2023-01-31T08:56:08;99954.16;;;5.36;72.33
16664;BME280;8445;51.270;9.434;2023-01-31T08:58:35;99943.00;;;5.31;71.67
16664;BME280;8445;51.270;9.434;2023-01-31T09:01:06;99945.00;;;5.26;71.62
16664;BME280;8445;51.270;9.434;2023-01-31T09:03:32;99934.84;;;5.18;71.69
16664;BME280;8445;51.270;9.434;2023-01-31T09:06:03;99928.63;;;5.21;71.96
16664;BME280;8445;51.270;9.434;2023-01-31T09:08:29;99940.31;;;5.32;72.03
16664;BME280;8445;51.270;9.434;2023-01-31T09:10:56;99940.84;;;5.41;72.08
16664;BME280;8445;51.270;9.434;2023-01-31T09:13:23;99934.44;;;5.46;72.05
16664;BME280;8445;51.270;9.434;2023-01-31T09:16:04;99931.63;;;5.51;72.41
16664;BME280;8445;51.270;9.434;2023-01-31T09:18:35;99934.31;;;5.49;72.29
16664;BME280;8445;51.270;9.434;2023-01-31T09:23:33;99911.81;;;5.63;72.88
16664;BME280;8445;51.270;9.434;2023-01-31T09:25:59;99914.50;;;5.81;72.86
16664;BME280;8445;51.270;9.434;2023-01-31T09:28:25;99915.53;;;5.96;72.97
16664;BME280;8445;51.270;9.434;2023-01-31T09:30:50;99912.75;;;6.18;73.22
16664;BME280;8445;51.270;9.434;2023-01-31T09:33:20;99912.91;;;6.50;73.50
16664;BME280;8445;51.270;9.434;2023-01-31T09:35:56;99909.19;;;6.72;72.71
16664;BME280;8445;51.270;9.434;2023-01-31T09:38:22;99908.84;;;6.95;73.71
16664;BME280;8445;51.270;9.434;2023-01-31T09:40:48;99911.88;;;7.21;73.74
16664;BME280;8445;51.270;9.434;2023-01-31T09:43:14;99900.53;;;7.37;73.52
16664;BME280;8445;51.270;9.434;2023-01-31T09:45:43;99893.47;;;7.37;72.96
16664;BME280;8445;51.270;9.434;2023-01-31T09:48:17;99890.25;;;7.32;71.84
16664;BME280;8445;51.270;9.434;2023-01-31T09:50:52;99889.44;;;7.14;71.45
16664;BME280;8445;51.270;9.434;2023-01-31T09:53:23;99870.78;;;7.03;72.19
16664;BME280;8445;51.270;9.434;2023-01-31T10:01:31;99890.19;;;7.00;71.79
16664;BME280;8445;51.270;9.434;2023-01-31T10:04:23;99880.53;;;7.01;71.54
16664;BME280;8445;51.270;9.434;2023-01-31T10:07:00;99879.94;;;6.95;72.30
16664;BME280;8445;51.270;9.434;2023-01-31T10:09:34;99894.00;;;6.94;72.20
16664;BME280;8445;51.270;9.434;2023-01-31T10:12:16;99893.16;;;6.94;71.93
16664;BME280;8445;51.270;9.434;2023-01-31T10:14:52;99877.31;;;6.95;71.86
16664;BME280;8445;51.270;9.434;2023-01-31T10:17:28;99861.19;;;7.02;72.18
16664;BME280;8445;51.270;9.434;2023-01-31T10:27:52;99853.72;;;7.10;71.58
16664;BME280;8445;51.270;9.434;2023-01-31T10:30:23;99841.00;;;7.18;71.66
16664;BME280;8445;51.270;9.434;2023-01-31T10:32:56;99839.06;;;7.22;71.67
16664;BME280;8445;51.270;9.434;2023-01-31T10:35:34;99840.06;;;7.19;71.29
16664;BME280;8445;51.270;9.434;2023-01-31T10:38:15;99839.47;;;7.14;71.34
16664;BME280;8445;51.270;9.434;2023-01-31T10:40:45;99823.50;;;7.17;71.90
16664;BME280;8445;51.270;9.434;2023-01-31T10:44:20;99828.94;;;7.14;71.33
16664;BME280;8445;51.270;9.434;2023-01-31T10:46:14;99832.16;;;7.19;71.95
16664;BME280;8445;51.270;9.434;2023-01-31T10:48:41;99825.38;;;7.15;71.35
16664;BME280;8445;51.270;9.434;2023-01-31T10:51:39;99825.13;;;7.04;70.81
16664;BME280;8445;51.270;9.434;2023-01-31T10:54:33;99821.13;;;6.96;70.87
16664;BME280;8445;51.270;9.434;2023-01-31T10:57:02;99816.03;;;6.93;71.27
16664;BME280;8445;51.270;9.434;2023-01-31T10:59:36;99802.72;;;6.96;71.12
16664;BME280;8445;51.270;9.434;2023-01-31T11:02:03;99800.25;;;6.93;71.18
16664;BME280;8445;51.270;9.434;2023-01-31T11:04:29;99794.06;;;6.94;71.72
16664;BME280;8445;51.270;9.434;2023-01-31T11:06:57;99787.53;;;7.02;72.06
16664;BME280;8445;51.270;9.434;2023-01-31T11:09:27;99795.50;;;7.00;71.62
16664;BME280;8445;51.270;9.434;2023-01-31T11:12:01;99784.03;;;7.01;71.21
16664;BME280;8445;51.270;9.434;2023-01-31T11:14:27;99789.91;;;7.06;71.78
16664;BME280;8445;51.270;9.434;2023-01-31T11:17:17;99790.75;;;7.07;71.52
16664;BME280;8445;51.270;9.434;2023-01-31T11:19:45;99790.94;;;7.04;71.44
16664;BME280;8445;51.270;9.434;2023-01-31T11:22:23;99784.03;;;7.01;71.81
16664;BME280;8445;51.270;9.434;2023-01-31T11:24:50;99791.44;;;6.94;71.44
16664;BME280;8445;51.270;9.434;2023-01-31T11:27:34;99785.91;;;6.83;71.06
16664;BME280;8445;51.270;9.434;2023-01-31T11:30:01;99782.94;;;6.73;71.42
16664;BME280;8445;51.270;9.434;2023-01-31T11:32:30;99781.56;;;6.82;71.56
16664;BME280;8445;51.270;9.434;2023-01-31T11:35:00;99767.94;;;6.91;71.94
16664;BME280;8445;51.270;9.434;2023-01-31T11:37:27;99768.53;;;6.96;71.76
16664;BME280;8445;51.270;9.434;2023-01-31T11:40:02;99756.16;;;6.99;71.28
16664;BME280;8445;51.270;9.434;2023-01-31T11:42:28;99752.91;;;6.93;71.32
16664;BME280;8445;51.270;9.434;2023-01-31T11:45:03;99736.72;;;6.85;71.31
16664;BME280;8445;51.270;9.434;2023-01-31T11:47:45;99728.22;;;6.80;71.01
16664;BME280;8445;51.270;9.434;2023-01-31T11:50:42;99720.34;;;6.80;71.30
16664;BME280;8445;51.270;9.434;2023-01-31T11:53:18;99716.75;;;6.81;71.43
16664;BME280;8445;51.270;9.434;2023-01-31T11:55:45;99708.94;;;6.79;72.04
16664;BME280;8445;51.270;9.434;2023-01-31T12:00:53;99705.22;;;6.67;71.61
16664;BME280;8445;51.270;9.434;2023-01-31T12:03:21;99706.16;;;6.66;72.00
16664;BME280;8445;51.270;9.434;2023-01-31T12:06:01;99701.66;;;6.68;71.85
16664;BME280;8445;51.270;9.434;2023-01-31T12:10:56;99700.47;;;6.58;71.84
16664;BME280;8445;51.270;9.434;2023-01-31T12:13:22;99691.97;;;6.53;71.59
16664;BME280;8445;51.270;9.434;2023-01-31T12:15:57;99688.56;;;6.51;71.81
16664;BME280;8445;51.270;9.434;2023-01-31T12:18:54;99667.56;;;6.51;71.76
16664;BME280;8445;51.270;9.434;2023-01-31T12:24:15;99660.78;;;6.63;71.53
16664;BME280;8445;51.270;9.434;2023-01-31T12:26:56;99651.72;;;6.68;71.24
16664;BME280;8445;51.270;9.434;2023-01-31T12:29:46;99642.44;;;6.77;71.38
16664;BME280;8445;51.270;9.434;2023-01-31T12:35:03;99642.81;;;6.87;71.86
16664;BME280;8445;51.270;9.434;2023-01-31T12:40:33;99648.53;;;6.94;71.48
16664;BME280;8445;51.270;9.434;2023-01-31T12:54:37;99648.91;;;6.72;71.04
16664;BME280;8445;51.270;9.434;2023-01-31T13:02:56;99643.56;;;6.57;71.21
16664;BME280;8445;51.270;9.434;2023-01-31T13:05:56;99629.56;;;6.73;71.76
16664;BME280;8445;51.270;9.434;2023-01-31T13:08:26;99612.69;;;6.77;71.60
16664;BME280;8445;51.270;9.434;2023-01-31T13:14:00;99610.75;;;6.64;71.37
16664;BME280;8445;51.270;9.434;2023-01-31T13:16:34;99608.56;;;6.57;71.38
16664;BME280;8445;51.270;9.434;2023-01-31T13:19:06;99605.41;;;6.50;71.47
16664;BME280;8445;51.270;9.434;2023-01-31T13:21:42;99613.28;;;6.50;71.78
16664;BME280;8445;51.270;9.434;2023-01-31T13:24:28;99622.09;;;6.49;71.26
16664;BME280;8445;51.270;9.434;2023-01-31T13:27:03;99612.72;;;6.45;71.46
16664;BME280;8445;51.270;9.434;2023-01-31T13:29:48;99619.69;;;6.46;71.17
16664;BME280;8445;51.270;9.434;2023-01-31T13:35:08;99619.31;;;6.36;71.42
16664;BME280;8445;51.270;9.434;2023-01-31T13:37:43;99623.13;;;6.30;71.46
16664;BME280;8445;51.270;9.434;2023-01-31T13:40:21;99625.50;;;6.19;71.16
16664;BME280;8445;51.270;9.434;2023-01-31T13:42:50;99625.81;;;6.13;71.59
16664;BME280;8445;51.270;9.434;2023-01-31T13:45:29;99626.16;;;6.06;71.52
16664;BME280;8445;51.270;9.434;2023-01-31T13:48:09;99634.34;;;6.00;71.51
16664;BME280;8445;51.270;9.434;2023-01-31T13:50:49;99629.72;;;5.88;71.81
16664;BME280;8445;51.270;9.434;2023-01-31T13:53:26;99619.63;;;5.80;71.66
16664;BME280;8445;51.270;9.434;2023-01-31T13:55:53;99623.41;;;5.74;71.64
16664;BME280;8445;51.270;9.434;2023-01-31T13:58:22;99622.66;;;5.72;71.79
16664;BME280;8445;51.270;9.434;2023-01-31T14:01:01;99620.78;;;5.74;72.12
16664;BME280;8445;51.270;9.434;2023-01-31T14:09:35;99616.78;;;5.67;71.95
16664;BME280;8445;51.270;9.434;2023-01-31T14:14:39;99622.75;;;5.53;72.20
16664;BME280;8445;51.270;9.434;2023-01-31T14:22:34;99627.09;;;5.37;73.46
16664;BME280;8445;51.270;9.434;2023-01-31T14:25:11;99628.06;;;5.34;72.56
16664;BME280;8445;51.270;9.434;2023-01-31T14:30:39;99626.22;;;5.36;73.04
16664;BME280;8445;51.270;9.434;2023-01-31T14:48:22;99648.91;;;5.37;72.70
16664;BME280;8445;51.270;9.434;2023-01-31T14:56:32;99644.72;;;5.33;72.01
16664;BME280;8445;51.270;9.434;2023-01-31T14:59:33;99643.81;;;5.34;72.98
16664;BME280;8445;51.270;9.434;2023-01-31T15:02:24;99653.63;;;5.30;74.15
16664;BME280;8445;51.270;9.434;2023-01-31T15:05:14;99643.44;;;5.24;73.78
16664;BME280;8445;51.270;9.434;2023-01-31T15:11:01;99626.72;;;5.27;73.56
16664;BME280;8445;51.270;9.434;2023-01-31T15:13:45;99627.69;;;5.24;73.75
16664;BME280;8445;51.270;9.434;2023-01-31T15:16:20;99634.25;;;5.15;72.80
16664;BME280;8445;51.270;9.434;2023-01-31T15:21:31;99620.81;;;5.04;73.46
16664;BME280;8445;51.270;9.434;2023-01-31T15:23:59;99618.50;;;4.98;73.53
16664;BME280;8445;51.270;9.434;2023-01-31T15:26:31;99622.97;;;4.96;73.26
16664;BME280;8445;51.270;9.434;2023-01-31T15:29:03;99637.00;;;4.95;72.99
16664;BME280;8445;51.270;9.434;2023-01-31T15:31:42;99633.44;;;4.96;74.33
16664;BME280;8445;51.270;9.434;2023-01-31T15:34:19;99631.91;;;4.92;73.35
16664;BME280;8445;51.270;9.434;2023-01-31T15:42:30;99639.84;;;4.90;73.46